BPG weather

Barra do Garças Airport
Barra Do Garças, Mato Grosso, Brazil

Public forecast

Using degrees Celsius for public forecast. Weather courtesy of forecast.io.

Current aviation weather report (METAR) for Barra do Garças Airport

Report is more than 6 hours old.

Retrieved 2020/06/05 20:00 UTC (9 hours ago):

SBBW 052000Z 00000KT 9999 FEW020 33/19 Q1016

Aviation forecast (TAF) for Barra do Garças Airport

Retrieved 2020-06-06 00:06 UTC (5 hours ago):

TAF SBBW 052100Z 0600/0612 00000KT CAVOK TN19/0606Z TX26/0612Z BECMG 0610/0612 9999 FEW020 RMK PEG